sensor_id;sensor_type;location;lat;lon;timestamp;P1;durP1;ratioP1;P2;durP2;ratioP2
57730;SDS011;43570;47.476;19.040;2023-04-19T00:00:37;6.72;;;3.83;;
57730;SDS011;43570;47.476;19.040;2023-04-19T00:03:03;5.85;;;4.20;;
57730;SDS011;43570;47.476;19.040;2023-04-19T00:05:29;6.60;;;4.00;;
57730;SDS011;43570;47.476;19.040;2023-04-19T00:07:54;8.20;;;4.15;;
57730;SDS011;43570;47.476;19.040;2023-04-19T00:10:20;7.60;;;4.30;;
57730;SDS011;43570;47.476;19.040;2023-04-19T00:12:45;6.45;;;3.85;;
57730;SDS011;43570;47.476;19.040;2023-04-19T00:15:10;6.07;;;4.00;;
57730;SDS011;43570;47.476;19.040;2023-04-19T00:17:36;5.85;;;4.30;;
57730;SDS011;43570;47.476;19.040;2023-04-19T00:20:02;8.60;;;3.85;;
57730;SDS011;43570;47.476;19.040;2023-04-19T00:22:28;6.03;;;3.70;;
57730;SDS011;43570;47.476;19.040;2023-04-19T00:24:53;5.60;;;3.50;;
57730;SDS011;43570;47.476;19.040;2023-04-19T00:27:19;5.78;;;3.97;;
57730;SDS011;43570;47.476;19.040;2023-04-19T00:29:44;7.47;;;3.58;;
57730;SDS011;43570;47.476;19.040;2023-04-19T00:32:10;5.75;;;3.80;;
57730;SDS011;43570;47.476;19.040;2023-04-19T00:34:35;6.20;;;3.87;;
57730;SDS011;43570;47.476;19.040;2023-04-19T00:37:01;5.28;;;3.45;;
57730;SDS011;43570;47.476;19.040;2023-04-19T00:39:28;5.60;;;3.87;;
57730;SDS011;43570;47.476;19.040;2023-04-19T00:41:54;6.87;;;3.85;;
57730;SDS011;43570;47.476;19.040;2023-04-19T00:44:21;6.90;;;4.18;;
57730;SDS011;43570;47.476;19.040;2023-04-19T00:46:47;8.93;;;4.07;;
57730;SDS011;43570;47.476;19.040;2023-04-19T00:49:12;5.70;;;3.72;;
57730;SDS011;43570;47.476;19.040;2023-04-19T00:51:38;6.95;;;4.57;;
57730;SDS011;43570;47.476;19.040;2023-04-19T00:54:03;5.43;;;3.83;;
57730;SDS011;43570;47.476;19.040;2023-04-19T00:56:29;5.82;;;4.25;;
57730;SDS011;43570;47.476;19.040;2023-04-19T00:58:55;7.22;;;4.43;;
57730;SDS011;43570;47.476;19.040;2023-04-19T01:01:21;5.97;;;4.12;;
57730;SDS011;43570;47.476;19.040;2023-04-19T01:03:46;5.80;;;4.22;;
57730;SDS011;43570;47.476;19.040;2023-04-19T01:06:12;5.22;;;4.12;;
57730;SDS011;43570;47.476;19.040;2023-04-19T01:08:38;7.82;;;4.28;;
57730;SDS011;43570;47.476;19.040;2023-04-19T01:11:04;6.43;;;4.05;;
57730;SDS011;43570;47.476;19.040;2023-04-19T01:13:29;5.53;;;4.03;;
57730;SDS011;43570;47.476;19.040;2023-04-19T01:15:55;5.03;;;3.72;;
57730;SDS011;43570;47.476;19.040;2023-04-19T01:18:21;5.90;;;3.70;;
57730;SDS011;43570;47.476;19.040;2023-04-19T01:20:48;6.60;;;4.10;;
57730;SDS011;43570;47.476;19.040;2023-04-19T01:23:13;6.97;;;4.00;;
57730;SDS011;43570;47.476;19.040;2023-04-19T01:25:39;8.35;;;4.32;;
57730;SDS011;43570;47.476;19.040;2023-04-19T01:28:04;6.45;;;3.85;;
57730;SDS011;43570;47.476;19.040;2023-04-19T01:30:30;6.12;;;4.40;;
57730;SDS011;43570;47.476;19.040;2023-04-19T01:32:56;6.53;;;4.70;;
57730;SDS011;43570;47.476;19.040;2023-04-19T01:35:21;5.90;;;3.80;;
57730;SDS011;43570;47.476;19.040;2023-04-19T01:37:47;5.70;;;3.85;;
57730;SDS011;43570;47.476;19.040;2023-04-19T01:40:12;6.28;;;3.90;;
57730;SDS011;43570;47.476;19.040;2023-04-19T01:42:38;6.05;;;3.80;;
57730;SDS011;43570;47.476;19.040;2023-04-19T01:45:03;7.30;;;3.85;;
57730;SDS011;43570;47.476;19.040;2023-04-19T01:47:29;8.75;;;4.25;;
57730;SDS011;43570;47.476;19.040;2023-04-19T01:49:54;5.82;;;3.80;;
57730;SDS011;43570;47.476;19.040;2023-04-19T01:52:20;5.97;;;4.15;;
57730;SDS011;43570;47.476;19.040;2023-04-19T01:54:45;5.35;;;3.67;;
57730;SDS011;43570;47.476;19.040;2023-04-19T01:57:11;6.12;;;3.75;;
57730;SDS011;43570;47.476;19.040;2023-04-19T01:59:36;5.20;;;3.70;;
57730;SDS011;43570;47.476;19.040;2023-04-19T02:02:01;5.28;;;4.10;;
57730;SDS011;43570;47.476;19.040;2023-04-19T02:04:27;7.03;;;3.97;;
57730;SDS011;43570;47.476;19.040;2023-04-19T02:06:52;6.40;;;3.90;;
57730;SDS011;43570;47.476;19.040;2023-04-19T02:09:17;6.20;;;4.22;;
57730;SDS011;43570;47.476;19.040;2023-04-19T02:11:43;6.82;;;4.18;;
57730;SDS011;43570;47.476;19.040;2023-04-19T02:14:08;6.47;;;4.20;;
57730;SDS011;43570;47.476;19.040;2023-04-19T02:16:33;6.93;;;4.22;;
57730;SDS011;43570;47.476;19.040;2023-04-19T02:18:59;7.22;;;4.10;;
57730;SDS011;43570;47.476;19.040;2023-04-19T02:21:24;5.53;;;3.78;;
57730;SDS011;43570;47.476;19.040;2023-04-19T02:23:50;6.72;;;4.03;;
57730;SDS011;43570;47.476;19.040;2023-04-19T02:26:15;6.03;;;4.20;;
57730;SDS011;43570;47.476;19.040;2023-04-19T02:28:40;6.97;;;4.25;;
57730;SDS011;43570;47.476;19.040;2023-04-19T02:31:06;7.45;;;4.45;;
57730;SDS011;43570;47.476;19.040;2023-04-19T02:33:32;6.60;;;4.20;;
57730;SDS011;43570;47.476;19.040;2023-04-19T02:35:57;6.37;;;3.95;;
57730;SDS011;43570;47.476;19.040;2023-04-19T02:38:22;5.87;;;3.83;;
57730;SDS011;43570;47.476;19.040;2023-04-19T02:40:48;7.93;;;4.55;;
57730;SDS011;43570;47.476;19.040;2023-04-19T02:43:16;5.55;;;3.87;;
57730;SDS011;43570;47.476;19.040;2023-04-19T02:45:41;6.87;;;3.85;;
57730;SDS011;43570;47.476;19.040;2023-04-19T02:48:06;6.43;;;4.05;;
57730;SDS011;43570;47.476;19.040;2023-04-19T02:50:32;7.32;;;4.35;;
57730;SDS011;43570;47.476;19.040;2023-04-19T02:52:57;6.85;;;4.20;;
57730;SDS011;43570;47.476;19.040;2023-04-19T02:55:23;6.18;;;3.83;;
57730;SDS011;43570;47.476;19.040;2023-04-19T02:57:48;5.47;;;3.95;;
57730;SDS011;43570;47.476;19.040;2023-04-19T03:00:14;7.35;;;4.72;;
57730;SDS011;43570;47.476;19.040;2023-04-19T03:02:40;7.22;;;3.87;;
57730;SDS011;43570;47.476;19.040;2023-04-19T03:05:07;5.80;;;4.20;;
57730;SDS011;43570;47.476;19.040;2023-04-19T03:07:33;5.70;;;4.37;;
57730;SDS011;43570;47.476;19.040;2023-04-19T03:09:59;5.93;;;4.40;;
57730;SDS011;43570;47.476;19.040;2023-04-19T03:12:25;7.20;;;4.72;;
57730;SDS011;43570;47.476;19.040;2023-04-19T03:14:50;6.50;;;4.28;;
57730;SDS011;43570;47.476;19.040;2023-04-19T03:17:15;8.32;;;5.20;;
57730;SDS011;43570;47.476;19.040;2023-04-19T03:19:41;6.22;;;4.62;;
57730;SDS011;43570;47.476;19.040;2023-04-19T03:22:06;6.62;;;4.80;;
57730;SDS011;43570;47.476;19.040;2023-04-19T03:24:32;9.40;;;5.37;;
57730;SDS011;43570;47.476;19.040;2023-04-19T03:26:57;9.13;;;5.05;;
57730;SDS011;43570;47.476;19.040;2023-04-19T03:29:22;6.28;;;4.87;;
57730;SDS011;43570;47.476;19.040;2023-04-19T03:31:48;7.90;;;4.75;;
57730;SDS011;43570;47.476;19.040;2023-04-19T03:34:14;8.48;;;5.10;;
57730;SDS011;43570;47.476;19.040;2023-04-19T03:36:39;8.75;;;5.82;;
57730;SDS011;43570;47.476;19.040;2023-04-19T03:39:05;8.98;;;5.00;;
57730;SDS011;43570;47.476;19.040;2023-04-19T03:41:30;7.95;;;4.95;;
57730;SDS011;43570;47.476;19.040;2023-04-19T03:43:56;8.68;;;7.70;;
57730;SDS011;43570;47.476;19.040;2023-04-19T03:46:24;7.87;;;5.45;;
57730;SDS011;43570;47.476;19.040;2023-04-19T03:48:49;8.95;;;5.20;;
57730;SDS011;43570;47.476;19.040;2023-04-19T03:51:16;8.85;;;4.85;;
57730;SDS011;43570;47.476;19.040;2023-04-19T03:53:41;8.10;;;5.25;;
57730;SDS011;43570;47.476;19.040;2023-04-19T03:56:07;7.68;;;5.37;;
57730;SDS011;43570;47.476;19.040;2023-04-19T03:58:32;7.10;;;5.10;;
57730;SDS011;43570;47.476;19.040;2023-04-19T04:00:58;9.32;;;5.45;;
57730;SDS011;43570;47.476;19.040;2023-04-19T04:03:23;7.87;;;5.28;;
57730;SDS011;43570;47.476;19.040;2023-04-19T04:05:49;7.45;;;4.57;;
57730;SDS011;43570;47.476;19.040;2023-04-19T04:08:14;9.07;;;5.15;;
57730;SDS011;43570;47.476;19.040;2023-04-19T04:10:39;7.03;;;4.95;;
57730;SDS011;43570;47.476;19.040;2023-04-19T04:13:05;10.23;;;5.40;;
57730;SDS011;43570;47.476;19.040;2023-04-19T04:15:30;7.57;;;5.28;;
57730;SDS011;43570;47.476;19.040;2023-04-19T04:17:56;9.45;;;5.47;;
57730;SDS011;43570;47.476;19.040;2023-04-19T04:20:21;8.68;;;5.93;;
57730;SDS011;43570;47.476;19.040;2023-04-19T04:22:46;8.30;;;5.65;;
57730;SDS011;43570;47.476;19.040;2023-04-19T04:25:12;7.60;;;5.53;;
57730;SDS011;43570;47.476;19.040;2023-04-19T04:27:39;10.70;;;5.53;;
57730;SDS011;43570;47.476;19.040;2023-04-19T04:30:06;10.77;;;7.82;;
57730;SDS011;43570;47.476;19.040;2023-04-19T04:32:33;10.52;;;6.85;;
57730;SDS011;43570;47.476;19.040;2023-04-19T04:35:00;8.00;;;5.68;;
57730;SDS011;43570;47.476;19.040;2023-04-19T04:37:30;9.57;;;5.65;;
57730;SDS011;43570;47.476;19.040;2023-04-19T04:39:58;8.57;;;5.65;;
57730;SDS011;43570;47.476;19.040;2023-04-19T04:42:23;9.68;;;5.55;;
57730;SDS011;43570;47.476;19.040;2023-04-19T04:44:49;8.07;;;5.65;;
57730;SDS011;43570;47.476;19.040;2023-04-19T04:47:15;8.25;;;5.87;;
57730;SDS011;43570;47.476;19.040;2023-04-19T04:49:41;8.38;;;5.60;;
57730;SDS011;43570;47.476;19.040;2023-04-19T04:52:06;7.82;;;5.70;;
57730;SDS011;43570;47.476;19.040;2023-04-19T04:54:32;12.80;;;6.18;;
57730;SDS011;43570;47.476;19.040;2023-04-19T04:56:58;9.48;;;5.75;;
57730;SDS011;43570;47.476;19.040;2023-04-19T04:59:24;7.50;;;5.50;;
57730;SDS011;43570;47.476;19.040;2023-04-19T05:01:50;8.05;;;5.70;;
57730;SDS011;43570;47.476;19.040;2023-04-19T05:04:16;7.95;;;5.70;;
57730;SDS011;43570;47.476;19.040;2023-04-19T05:06:41;8.75;;;6.87;;
57730;SDS011;43570;47.476;19.040;2023-04-19T05:09:08;8.02;;;5.60;;
57730;SDS011;43570;47.476;19.040;2023-04-19T05:11:34;9.20;;;6.03;;
57730;SDS011;43570;47.476;19.040;2023-04-19T05:13:59;8.23;;;5.50;;
57730;SDS011;43570;47.476;19.040;2023-04-19T05:16:25;9.32;;;6.22;;
57730;SDS011;43570;47.476;19.040;2023-04-19T05:18:51;8.80;;;5.70;;
57730;SDS011;43570;47.476;19.040;2023-04-19T05:21:16;10.38;;;6.05;;
57730;SDS011;43570;47.476;19.040;2023-04-19T05:23:42;8.68;;;5.60;;
57730;SDS011;43570;47.476;19.040;2023-04-19T05:26:07;7.60;;;5.65;;
57730;SDS011;43570;47.476;19.040;2023-04-19T05:28:36;10.13;;;6.40;;
57730;SDS011;43570;47.476;19.040;2023-04-19T05:31:02;8.10;;;4.97;;
57730;SDS011;43570;47.476;19.040;2023-04-19T05:33:28;10.20;;;7.05;;
57730;SDS011;43570;47.476;19.040;2023-04-19T05:35:53;8.02;;;5.60;;
57730;SDS011;43570;47.476;19.040;2023-04-19T05:38:18;8.90;;;5.60;;
57730;SDS011;43570;47.476;19.040;2023-04-19T05:40:44;6.68;;;5.18;;
57730;SDS011;43570;47.476;19.040;2023-04-19T05:43:09;8.15;;;5.85;;
57730;SDS011;43570;47.476;19.040;2023-04-19T05:45:35;9.63;;;5.57;;
57730;SDS011;43570;47.476;19.040;2023-04-19T05:48:00;10.77;;;6.37;;
57730;SDS011;43570;47.476;19.040;2023-04-19T05:50:26;7.12;;;5.40;;
57730;SDS011;43570;47.476;19.040;2023-04-19T05:52:51;8.07;;;6.25;;
57730;SDS011;43570;47.476;19.040;2023-04-19T05:55:16;8.10;;;5.37;;
57730;SDS011;43570;47.476;19.040;2023-04-19T05:57:42;9.55;;;5.57;;
57730;SDS011;43570;47.476;19.040;2023-04-19T06:00:07;12.48;;;6.57;;
57730;SDS011;43570;47.476;19.040;2023-04-19T06:02:33;10.07;;;6.43;;
57730;SDS011;43570;47.476;19.040;2023-04-19T06:04:59;9.73;;;5.15;;
57730;SDS011;43570;47.476;19.040;2023-04-19T06:07:28;9.10;;;5.85;;
57730;SDS011;43570;47.476;19.040;2023-04-19T06:09:53;7.62;;;5.57;;
57730;SDS011;43570;47.476;19.040;2023-04-19T06:12:19;9.60;;;5.78;;
57730;SDS011;43570;47.476;19.040;2023-04-19T06:14:44;9.45;;;5.47;;
57730;SDS011;43570;47.476;19.040;2023-04-19T06:17:09;9.30;;;5.85;;
57730;SDS011;43570;47.476;19.040;2023-04-19T06:19:35;10.88;;;5.90;;
57730;SDS011;43570;47.476;19.040;2023-04-19T06:22:00;8.10;;;5.35;;
57730;SDS011;43570;47.476;19.040;2023-04-19T06:24:26;10.55;;;5.35;;
57730;SDS011;43570;47.476;19.040;2023-04-19T06:26:51;8.52;;;5.50;;
57730;SDS011;43570;47.476;19.040;2023-04-19T06:29:17;7.82;;;5.70;;
57730;SDS011;43570;47.476;19.040;2023-04-19T06:31:45;8.07;;;5.57;;
57730;SDS011;43570;47.476;19.040;2023-04-19T06:34:11;7.80;;;5.32;;
57730;SDS011;43570;47.476;19.040;2023-04-19T06:36:36;8.57;;;5.37;;
57730;SDS011;43570;47.476;19.040;2023-04-19T06:39:02;7.43;;;5.15;;
57730;SDS011;43570;47.476;19.040;2023-04-19T06:41:28;8.82;;;5.45;;
57730;SDS011;43570;47.476;19.040;2023-04-19T06:43:53;8.38;;;5.72;;
57730;SDS011;43570;47.476;19.040;2023-04-19T06:46:19;11.02;;;5.60;;
57730;SDS011;43570;47.476;19.040;2023-04-19T06:48:44;7.53;;;5.03;;
57730;SDS011;43570;47.476;19.040;2023-04-19T06:51:09;10.90;;;5.18;;
57730;SDS011;43570;47.476;19.040;2023-04-19T06:53:35;11.77;;;4.72;;
57730;SDS011;43570;47.476;19.040;2023-04-19T06:56:01;8.95;;;5.90;;
57730;SDS011;43570;47.476;19.040;2023-04-19T06:58:31;8.85;;;4.50;;
57730;SDS011;43570;47.476;19.040;2023-04-19T07:00:56;9.48;;;4.93;;
57730;SDS011;43570;47.476;19.040;2023-04-19T07:03:22;8.30;;;4.20;;
57730;SDS011;43570;47.476;19.040;2023-04-19T07:05:47;7.78;;;4.62;;
57730;SDS011;43570;47.476;19.040;2023-04-19T07:08:13;7.93;;;4.60;;
57730;SDS011;43570;47.476;19.040;2023-04-19T07:10:39;6.43;;;4.95;;
57730;SDS011;43570;47.476;19.040;2023-04-19T07:13:04;9.20;;;4.95;;
57730;SDS011;43570;47.476;19.040;2023-04-19T07:15:29;8.38;;;4.30;;
57730;SDS011;43570;47.476;19.040;2023-04-19T07:17:55;9.95;;;4.72;;
57730;SDS011;43570;47.476;19.040;2023-04-19T07:20:20;6.85;;;3.87;;
57730;SDS011;43570;47.476;19.040;2023-04-19T07:22:46;6.97;;;4.65;;
57730;SDS011;43570;47.476;19.040;2023-04-19T07:25:11;5.20;;;3.53;;
57730;SDS011;43570;47.476;19.040;2023-04-19T07:27:38;7.87;;;3.78;;
57730;SDS011;43570;47.476;19.040;2023-04-19T07:30:03;5.53;;;3.60;;
57730;SDS011;43570;47.476;19.040;2023-04-19T07:32:29;7.57;;;4.10;;
57730;SDS011;43570;47.476;19.040;2023-04-19T07:34:55;6.37;;;3.90;;
57730;SDS011;43570;47.476;19.040;2023-04-19T07:37:20;7.32;;;4.22;;
57730;SDS011;43570;47.476;19.040;2023-04-19T07:39:46;7.93;;;4.25;;
57730;SDS011;43570;47.476;19.040;2023-04-19T07:42:11;6.95;;;3.70;;
57730;SDS011;43570;47.476;19.040;2023-04-19T07:44:36;6.22;;;4.10;;
57730;SDS011;43570;47.476;19.040;2023-04-19T07:47:03;5.72;;;3.80;;
57730;SDS011;43570;47.476;19.040;2023-04-19T07:49:29;5.07;;;3.20;;
57730;SDS011;43570;47.476;19.040;2023-04-19T07:51:58;4.93;;;2.90;;
57730;SDS011;43570;47.476;19.040;2023-04-19T07:54:26;5.35;;;3.37;;
57730;SDS011;43570;47.476;19.040;2023-04-19T07:56:51;6.47;;;3.40;;
57730;SDS011;43570;47.476;19.040;2023-04-19T07:59:17;4.22;;;2.37;;
57730;SDS011;43570;47.476;19.040;2023-04-19T08:01:42;5.50;;;2.80;;
57730;SDS011;43570;47.476;19.040;2023-04-19T08:04:08;4.35;;;2.72;;
57730;SDS011;43570;47.476;19.040;2023-04-19T08:06:33;4.40;;;2.90;;
57730;SDS011;43570;47.476;19.040;2023-04-19T08:09:01;4.82;;;2.83;;
57730;SDS011;43570;47.476;19.040;2023-04-19T08:11:27;8.35;;;2.78;;
57730;SDS011;43570;47.476;19.040;2023-04-19T08:13:52;7.55;;;4.05;;
57730;SDS011;43570;47.476;19.040;2023-04-19T08:16:18;5.00;;;2.62;;
57730;SDS011;43570;47.476;19.040;2023-04-19T08:18:43;8.35;;;3.35;;
57730;SDS011;43570;47.476;19.040;2023-04-19T08:21:10;5.60;;;3.12;;
57730;SDS011;43570;47.476;19.040;2023-04-19T08:23:35;4.07;;;2.75;;
57730;SDS011;43570;47.476;19.040;2023-04-19T08:26:01;8.48;;;3.60;;
57730;SDS011;43570;47.476;19.040;2023-04-19T08:28:26;8.13;;;3.87;;
57730;SDS011;43570;47.476;19.040;2023-04-19T08:30:53;5.45;;;3.53;;
57730;SDS011;43570;47.476;19.040;2023-04-19T08:33:18;4.97;;;3.50;;
57730;SDS011;43570;47.476;19.040;2023-04-19T08:35:44;5.03;;;3.20;;
57730;SDS011;43570;47.476;19.040;2023-04-19T08:38:09;5.82;;;3.70;;
57730;SDS011;43570;47.476;19.040;2023-04-19T08:40:36;5.72;;;3.50;;
57730;SDS011;43570;47.476;19.040;2023-04-19T08:43:10;7.15;;;3.58;;
57730;SDS011;43570;47.476;19.040;2023-04-19T08:45:36;5.87;;;3.40;;
57730;SDS011;43570;47.476;19.040;2023-04-19T08:48:01;5.30;;;3.45;;
57730;SDS011;43570;47.476;19.040;2023-04-19T08:50:29;5.75;;;3.72;;
57730;SDS011;43570;47.476;19.040;2023-04-19T08:52:54;7.10;;;3.67;;
57730;SDS011;43570;47.476;19.040;2023-04-19T08:55:23;6.50;;;4.15;;
57730;SDS011;43570;47.476;19.040;2023-04-19T08:57:49;6.37;;;3.83;;
57730;SDS011;43570;47.476;19.040;2023-04-19T09:00:14;7.37;;;4.00;;
57730;SDS011;43570;47.476;19.040;2023-04-19T09:02:47;6.72;;;4.05;;
57730;SDS011;43570;47.476;19.040;2023-04-19T09:05:13;6.70;;;4.10;;
57730;SDS011;43570;47.476;19.040;2023-04-19T09:07:39;6.78;;;4.45;;
57730;SDS011;43570;47.476;19.040;2023-04-19T09:10:06;7.37;;;4.75;;
57730;SDS011;43570;47.476;19.040;2023-04-19T09:12:33;7.43;;;4.80;;
57730;SDS011;43570;47.476;19.040;2023-04-19T09:15:00;8.40;;;4.53;;
57730;SDS011;43570;47.476;19.040;2023-04-19T09:17:30;6.28;;;4.75;;
57730;SDS011;43570;47.476;19.040;2023-04-19T09:19:56;8.23;;;4.80;;
57730;SDS011;43570;47.476;19.040;2023-04-19T09:22:22;7.12;;;4.87;;
57730;SDS011;43570;47.476;19.040;2023-04-19T09:24:48;8.70;;;5.07;;
57730;SDS011;43570;47.476;19.040;2023-04-19T09:27:15;6.55;;;4.95;;
57730;SDS011;43570;47.476;19.040;2023-04-19T09:29:56;7.30;;;4.95;;
57730;SDS011;43570;47.476;19.040;2023-04-19T09:32:22;7.12;;;5.05;;
57730;SDS011;43570;47.476;19.040;2023-04-19T09:37:18;6.32;;;4.68;;
57730;SDS011;43570;47.476;19.040;2023-04-19T09:39:43;9.18;;;5.10;;
57730;SDS011;43570;47.476;19.040;2023-04-19T09:42:09;7.70;;;5.32;;
57730;SDS011;43570;47.476;19.040;2023-04-19T09:44:35;7.55;;;5.60;;
57730;SDS011;43570;47.476;19.040;2023-04-19T09:47:00;7.85;;;5.87;;
57730;SDS011;43570;47.476;19.040;2023-04-19T09:49:26;7.85;;;5.32;;
57730;SDS011;43570;47.476;19.040;2023-04-19T09:51:54;7.60;;;4.97;;
57730;SDS011;43570;47.476;19.040;2023-04-19T09:54:21;8.35;;;5.68;;
57730;SDS011;43570;47.476;19.040;2023-04-19T09:56:48;8.32;;;5.43;;
57730;SDS011;43570;47.476;19.040;2023-04-19T09:59:14;7.85;;;5.90;;
57730;SDS011;43570;47.476;19.040;2023-04-19T10:01:47;8.77;;;5.25;;
57730;SDS011;43570;47.476;19.040;2023-04-19T10:04:17;8.00;;;5.00;;
57730;SDS011;43570;47.476;19.040;2023-04-19T10:06:49;6.85;;;5.57;;
57730;SDS011;43570;47.476;19.040;2023-04-19T10:09:16;9.15;;;6.70;;
57730;SDS011;43570;47.476;19.040;2023-04-19T10:11:46;8.05;;;5.37;;
57730;SDS011;43570;47.476;19.040;2023-04-19T10:14:13;10.02;;;5.60;;
57730;SDS011;43570;47.476;19.040;2023-04-19T10:16:39;8.20;;;6.60;;
57730;SDS011;43570;47.476;19.040;2023-04-19T10:19:09;10.98;;;6.93;;
57730;SDS011;43570;47.476;19.040;2023-04-19T10:21:36;7.95;;;5.47;;
57730;SDS011;43570;47.476;19.040;2023-04-19T10:24:02;7.85;;;5.80;;
57730;SDS011;43570;47.476;19.040;2023-04-19T10:26:30;9.05;;;5.72;;
57730;SDS011;43570;47.476;19.040;2023-04-19T10:32:36;8.55;;;5.55;;
57730;SDS011;43570;47.476;19.040;2023-04-19T10:35:06;8.07;;;5.25;;
57730;SDS011;43570;47.476;19.040;2023-04-19T10:37:42;9.15;;;5.68;;
57730;SDS011;43570;47.476;19.040;2023-04-19T10:43:21;7.80;;;6.25;;
57730;SDS011;43570;47.476;19.040;2023-04-19T10:45:47;8.13;;;6.57;;
57730;SDS011;43570;47.476;19.040;2023-04-19T10:51:03;10.70;;;7.75;;
57730;SDS011;43570;47.476;19.040;2023-04-19T10:53:52;10.52;;;9.07;;
57730;SDS011;43570;47.476;19.040;2023-04-19T10:56:22;11.48;;;9.00;;
57730;SDS011;43570;47.476;19.040;2023-04-19T11:04:57;12.40;;;8.65;;
57730;SDS011;43570;47.476;19.040;2023-04-19T11:07:24;10.70;;;7.93;;
57730;SDS011;43570;47.476;19.040;2023-04-19T11:09:50;11.00;;;8.77;;
57730;SDS011;43570;47.476;19.040;2023-04-19T11:12:17;8.82;;;7.93;;
57730;SDS011;43570;47.476;19.040;2023-04-19T11:17:13;9.63;;;6.60;;
57730;SDS011;43570;47.476;19.040;2023-04-19T11:19:41;9.95;;;6.75;;
57730;SDS011;43570;47.476;19.040;2023-04-19T11:22:08;8.07;;;6.47;;
57730;SDS011;43570;47.476;19.040;2023-04-19T11:24:34;10.05;;;6.72;;
57730;SDS011;43570;47.476;19.040;2023-04-19T11:26:59;9.50;;;7.93;;
57730;SDS011;43570;47.476;19.040;2023-04-19T11:29:25;10.70;;;8.57;;
57730;SDS011;43570;47.476;19.040;2023-04-19T11:31:50;10.77;;;8.90;;
57730;SDS011;43570;47.476;19.040;2023-04-19T11:34:16;9.90;;;8.18;;
57730;SDS011;43570;47.476;19.040;2023-04-19T11:36:46;10.43;;;7.82;;
57730;SDS011;43570;47.476;19.040;2023-04-19T11:39:15;12.30;;;8.73;;
57730;SDS011;43570;47.476;19.040;2023-04-19T11:41:40;8.18;;;6.95;;
57730;SDS011;43570;47.476;19.040;2023-04-19T11:44:16;10.80;;;9.70;;
57730;SDS011;43570;47.476;19.040;2023-04-19T11:46:55;11.80;;;10.43;;
57730;SDS011;43570;47.476;19.040;2023-04-19T11:49:25;11.57;;;10.38;;
57730;SDS011;43570;47.476;19.040;2023-04-19T11:51:55;13.05;;;10.80;;
57730;SDS011;43570;47.476;19.040;2023-04-19T11:54:22;12.75;;;11.45;;
57730;SDS011;43570;47.476;19.040;2023-04-19T11:56:55;12.37;;;11.07;;
57730;SDS011;43570;47.476;19.040;2023-04-19T11:59:34;12.63;;;10.77;;
57730;SDS011;43570;47.476;19.040;2023-04-19T12:02:06;13.70;;;11.10;;
57730;SDS011;43570;47.476;19.040;2023-04-19T12:04:32;12.93;;;11.50;;
57730;SDS011;43570;47.476;19.040;2023-04-19T12:06:59;11.93;;;10.70;;
57730;SDS011;43570;47.476;19.040;2023-04-19T12:09:25;12.48;;;11.27;;
57730;SDS011;43570;47.476;19.040;2023-04-19T12:11:51;11.90;;;10.68;;
57730;SDS011;43570;47.476;19.040;2023-04-19T12:14:17;13.02;;;10.50;;
57730;SDS011;43570;47.476;19.040;2023-04-19T12:16:45;11.65;;;10.55;;
57730;SDS011;43570;47.476;19.040;2023-04-19T12:19:11;13.02;;;9.65;;
57730;SDS011;43570;47.476;19.040;2023-04-19T12:21:38;11.20;;;10.00;;
57730;SDS011;43570;47.476;19.040;2023-04-19T12:24:03;12.90;;;10.60;;
57730;SDS011;43570;47.476;19.040;2023-04-19T12:26:28;11.52;;;10.32;;
57730;SDS011;43570;47.476;19.040;2023-04-19T12:28:54;12.27;;;10.82;;
57730;SDS011;43570;47.476;19.040;2023-04-19T12:31:20;13.20;;;11.73;;
57730;SDS011;43570;47.476;19.040;2023-04-19T12:33:45;12.70;;;11.05;;
57730;SDS011;43570;47.476;19.040;2023-04-19T12:36:11;13.40;;;11.80;;
57730;SDS011;43570;47.476;19.040;2023-04-19T12:38:37;11.68;;;10.30;;
57730;SDS011;43570;47.476;19.040;2023-04-19T12:41:02;12.15;;;10.52;;
57730;SDS011;43570;47.476;19.040;2023-04-19T12:43:28;11.70;;;10.50;;
57730;SDS011;43570;47.476;19.040;2023-04-19T12:45:56;15.52;;;10.63;;
57730;SDS011;43570;47.476;19.040;2023-04-19T12:48:22;11.52;;;10.23;;
57730;SDS011;43570;47.476;19.040;2023-04-19T12:50:48;10.85;;;8.90;;
57730;SDS011;43570;47.476;19.040;2023-04-19T12:53:13;10.07;;;9.02;;
57730;SDS011;43570;47.476;19.040;2023-04-19T12:55:39;9.05;;;7.05;;
57730;SDS011;43570;47.476;19.040;2023-04-19T12:58:05;10.20;;;8.40;;
57730;SDS011;43570;47.476;19.040;2023-04-19T13:00:30;11.00;;;8.95;;
57730;SDS011;43570;47.476;19.040;2023-04-19T13:02:56;12.98;;;8.52;;
57730;SDS011;43570;47.476;19.040;2023-04-19T13:05:21;10.38;;;8.05;;
57730;SDS011;43570;47.476;19.040;2023-04-19T13:07:47;8.38;;;7.30;;
57730;SDS011;43570;47.476;19.040;2023-04-19T13:10:12;9.95;;;8.27;;
57730;SDS011;43570;47.476;19.040;2023-04-19T13:12:38;11.98;;;8.63;;
57730;SDS011;43570;47.476;19.040;2023-04-19T13:15:03;9.32;;;7.97;;
57730;SDS011;43570;47.476;19.040;2023-04-19T13:17:29;14.87;;;7.50;;
57730;SDS011;43570;47.476;19.040;2023-04-19T13:19:54;8.50;;;6.85;;
57730;SDS011;43570;47.476;19.040;2023-04-19T13:22:20;9.50;;;6.90;;
57730;SDS011;43570;47.476;19.040;2023-04-19T13:24:46;8.75;;;6.82;;
57730;SDS011;43570;47.476;19.040;2023-04-19T13:27:11;9.60;;;6.70;;
57730;SDS011;43570;47.476;19.040;2023-04-19T13:29:36;10.27;;;7.40;;
57730;SDS011;43570;47.476;19.040;2023-04-19T13:32:02;8.40;;;7.50;;
57730;SDS011;43570;47.476;19.040;2023-04-19T13:34:31;9.55;;;7.90;;
57730;SDS011;43570;47.476;19.040;2023-04-19T13:36:56;9.55;;;8.10;;
57730;SDS011;43570;47.476;19.040;2023-04-19T13:39:22;11.68;;;8.93;;
57730;SDS011;43570;47.476;19.040;2023-04-19T13:41:47;15.75;;;7.62;;
57730;SDS011;43570;47.476;19.040;2023-04-19T13:44:13;11.65;;;7.95;;
57730;SDS011;43570;47.476;19.040;2023-04-19T13:46:38;11.88;;;8.48;;
57730;SDS011;43570;47.476;19.040;2023-04-19T13:49:04;11.00;;;8.65;;
57730;SDS011;43570;47.476;19.040;2023-04-19T13:51:29;9.75;;;8.75;;
57730;SDS011;43570;47.476;19.040;2023-04-19T13:53:55;10.90;;;9.77;;
57730;SDS011;43570;47.476;19.040;2023-04-19T13:56:20;13.80;;;11.85;;
57730;SDS011;43570;47.476;19.040;2023-04-19T13:58:46;11.30;;;10.18;;
57730;SDS011;43570;47.476;19.040;2023-04-19T14:01:11;12.13;;;10.90;;
57730;SDS011;43570;47.476;19.040;2023-04-19T14:03:37;13.10;;;11.73;;
57730;SDS011;43570;47.476;19.040;2023-04-19T14:06:02;14.10;;;11.73;;
57730;SDS011;43570;47.476;19.040;2023-04-19T14:08:28;13.57;;;11.25;;
57730;SDS011;43570;47.476;19.040;2023-04-19T14:10:54;12.35;;;11.05;;
57730;SDS011;43570;47.476;19.040;2023-04-19T14:13:19;12.40;;;11.10;;
57730;SDS011;43570;47.476;19.040;2023-04-19T14:15:44;13.90;;;12.50;;
57730;SDS011;43570;47.476;19.040;2023-04-19T14:18:10;15.07;;;12.85;;
57730;SDS011;43570;47.476;19.040;2023-04-19T14:20:36;13.32;;;11.95;;
57730;SDS011;43570;47.476;19.040;2023-04-19T14:23:01;12.68;;;11.02;;
57730;SDS011;43570;47.476;19.040;2023-04-19T14:25:26;12.32;;;11.12;;
57730;SDS011;43570;47.476;19.040;2023-04-19T14:27:52;12.52;;;11.18;;
57730;SDS011;43570;47.476;19.040;2023-04-19T14:30:18;14.73;;;11.75;;
57730;SDS011;43570;47.476;19.040;2023-04-19T14:32:44;13.40;;;11.70;;
57730;SDS011;43570;47.476;19.040;2023-04-19T14:35:09;12.60;;;10.02;;
57730;SDS011;43570;47.476;19.040;2023-04-19T14:37:37;12.63;;;9.77;;
57730;SDS011;43570;47.476;19.040;2023-04-19T14:40:03;13.50;;;10.07;;
57730;SDS011;43570;47.476;19.040;2023-04-19T14:42:29;11.63;;;10.43;;